createdAt,value
2019-05-13T00:00:57.824Z,5.37
2019-05-13T00:01:57.722Z,5.30
2019-05-13T00:02:57.625Z,5.44
2019-05-13T00:03:57.649Z,5.42
2019-05-13T00:04:57.427Z,5.33
2019-05-13T00:05:57.327Z,5.30
2019-05-13T00:06:57.875Z,5.37
2019-05-13T00:07:57.128Z,5.35
2019-05-13T00:08:57.042Z,5.32
2019-05-13T00:09:56.929Z,5.33
2019-05-13T00:10:56.934Z,5.38
2019-05-13T00:11:56.730Z,5.35
2019-05-13T00:12:56.637Z,5.35
2019-05-13T00:13:56.547Z,5.33
2019-05-13T00:14:56.433Z,5.33
2019-05-13T00:15:56.334Z,5.27
2019-05-13T00:16:56.233Z,5.23
2019-05-13T00:17:56.134Z,5.20
2019-05-13T00:18:56.048Z,5.27
2019-05-13T00:19:55.935Z,5.20
2019-05-13T00:20:55.863Z,5.22
2019-05-13T00:21:55.739Z,5.20
2019-05-13T00:22:55.638Z,5.20
2019-05-13T00:23:55.553Z,5.09
2019-05-13T00:24:55.440Z,5.19
2019-05-13T00:25:55.340Z,5.33
2019-05-13T00:26:55.240Z,5.22
2019-05-13T00:27:55.138Z,5.24
2019-05-13T00:28:55.054Z,5.19
2019-05-13T00:29:54.940Z,5.20
2019-05-13T00:30:54.843Z,5.22
2019-05-13T00:31:54.840Z,5.22
2019-05-13T00:32:54.703Z,5.20
2019-05-13T00:33:54.561Z,5.17
2019-05-13T00:34:54.443Z,5.11
2019-05-13T00:35:54.342Z,5.08
2019-05-13T00:37:07.837Z,5.22
2019-05-13T00:37:54.341Z,5.14
2019-05-13T00:38:54.166Z,5.14
2019-05-13T00:39:54.355Z,5.12
2019-05-13T00:40:54.523Z,5.17
2019-05-13T00:41:53.747Z,5.14
2019-05-13T00:42:54.508Z,4.99
2019-05-13T00:43:53.562Z,5.05
2019-05-13T00:44:53.551Z,5.06
2019-05-13T00:45:53.498Z,4.97
2019-05-13T00:46:53.843Z,5.04
2019-05-13T00:47:53.716Z,4.91
2019-05-13T00:48:54.076Z,4.94
2019-05-13T00:49:54.127Z,4.88
2019-05-13T00:50:54.458Z,4.77
2019-05-13T00:51:53.442Z,4.77
2019-05-13T00:52:53.689Z,4.71
2019-05-13T00:53:53.657Z,4.77
2019-05-13T00:54:53.467Z,4.75
2019-05-13T00:55:53.579Z,4.75
2019-05-13T00:56:54.624Z,4.80
2019-05-13T00:57:54.135Z,4.74
2019-05-13T00:58:54.060Z,4.69
2019-05-13T00:59:54.022Z,4.77
2019-05-13T01:00:51.850Z,4.83
2019-05-13T01:01:53.355Z,4.87
2019-05-13T01:02:53.357Z,4.86
2019-05-13T01:03:53.301Z,4.84
2019-05-13T01:04:53.539Z,4.84
2019-05-13T01:05:53.409Z,4.87
2019-05-13T01:06:53.607Z,4.86
2019-05-13T01:07:53.550Z,4.75
2019-05-13T01:08:53.458Z,4.77
2019-05-13T01:09:50.968Z,4.80
2019-05-13T01:10:50.852Z,4.77
2019-05-13T01:11:50.751Z,4.86
2019-05-13T01:12:50.651Z,4.87
2019-05-13T01:13:50.551Z,4.87
2019-05-13T01:14:50.474Z,4.83
2019-05-13T01:15:50.348Z,4.84
2019-05-13T01:16:50.251Z,4.77
2019-05-13T01:17:50.151Z,4.84
2019-05-13T01:18:50.049Z,4.80
2019-05-13T01:19:49.963Z,4.86
2019-05-13T01:20:49.849Z,4.93
2019-05-13T01:21:49.748Z,4.96
2019-05-13T01:22:49.650Z,4.93
2019-05-13T01:23:49.548Z,4.91
2019-05-13T01:24:49.462Z,4.91
2019-05-13T01:25:49.349Z,4.94
2019-05-13T01:26:49.247Z,4.84
2019-05-13T01:27:49.154Z,4.88
2019-05-13T01:28:49.047Z,4.79
2019-05-13T01:29:48.961Z,4.72
2019-05-13T01:30:48.847Z,4.69
2019-05-13T01:31:48.747Z,4.67
2019-05-13T01:32:48.647Z,4.59
2019-05-13T01:33:48.545Z,4.57
2019-05-13T01:34:48.459Z,4.61
2019-05-13T01:35:48.345Z,4.65
2019-05-13T01:36:48.245Z,4.59
2019-05-13T01:37:48.145Z,4.54
2019-05-13T01:38:48.045Z,4.53
2019-05-13T01:39:47.959Z,4.51
2019-05-13T01:40:47.845Z,4.51
2019-05-13T01:41:47.747Z,4.61
2019-05-13T01:42:47.645Z,4.56
2019-05-13T01:43:47.543Z,4.62
2019-05-13T01:44:47.447Z,4.50
2019-05-13T01:45:47.359Z,4.51
2019-05-13T01:46:47.244Z,4.39
2019-05-13T01:47:47.142Z,4.43
2019-05-13T01:48:47.045Z,4.38
2019-05-13T01:49:46.955Z,4.39
2019-05-13T01:50:46.849Z,4.39
2019-05-13T01:51:46.742Z,4.38
2019-05-13T01:52:46.641Z,4.51
2019-05-13T01:53:46.546Z,4.50
2019-05-13T01:54:46.546Z,4.50
2019-05-13T01:55:46.357Z,4.42
2019-05-13T01:56:46.244Z,4.39
2019-05-13T01:57:46.139Z,4.35
2019-05-13T01:58:46.041Z,4.34
2019-05-13T01:59:45.947Z,4.31
2019-05-13T02:00:45.852Z,4.28
2019-05-13T02:01:45.838Z,4.20
2019-05-13T02:02:45.639Z,4.18
2019-05-13T02:03:45.544Z,4.17
2019-05-13T02:04:45.438Z,4.14
2019-05-13T02:05:45.351Z,4.13
2019-05-13T02:06:45.239Z,4.13
2019-05-13T02:07:57.105Z,4.04
2019-05-13T02:08:45.142Z,4.04
2019-05-13T02:09:44.939Z,4.04
2019-05-13T02:10:44.853Z,3.96
2019-05-13T02:11:46.704Z,4.04
2019-05-13T02:12:44.912Z,4.06
2019-05-13T02:13:44.795Z,4.06
2019-05-13T02:14:44.487Z,3.99
2019-05-13T02:15:45.233Z,3.90
2019-05-13T02:16:44.591Z,3.93
2019-05-13T02:17:44.872Z,3.93
2019-05-13T02:18:44.523Z,3.93
2019-05-13T02:19:44.266Z,3.88
2019-05-13T02:20:44.452Z,3.93
2019-05-13T02:21:44.009Z,3.86
2019-05-13T02:22:44.565Z,3.89
2019-05-13T02:23:44.315Z,3.89
2019-05-13T02:24:44.698Z,3.84
2019-05-13T02:25:43.658Z,3.88
2019-05-13T02:26:43.820Z,3.74
2019-05-13T02:27:43.897Z,3.80
2019-05-13T02:28:43.625Z,3.74
2019-05-13T02:29:43.610Z,3.68
2019-05-13T02:30:45.589Z,3.72
2019-05-13T02:31:50.881Z,3.74
2019-05-13T02:32:43.004Z,3.64
2019-05-13T02:33:42.622Z,3.63
2019-05-13T02:34:43.744Z,3.54
2019-05-13T02:35:43.359Z,3.57
2019-05-13T02:36:43.882Z,3.60
2019-05-13T02:37:43.298Z,3.59
2019-05-13T02:38:42.802Z,3.67
2019-05-13T02:39:42.704Z,3.59
2019-05-13T02:40:43.186Z,3.59
2019-05-13T02:41:43.180Z,3.59
2019-05-13T02:42:43.661Z,3.53
2019-05-13T02:43:45.037Z,3.50
2019-05-13T02:44:43.739Z,3.45
2019-05-13T02:45:42.884Z,3.42
2019-05-13T02:46:44.376Z,3.35
2019-05-13T02:47:44.382Z,3.46
2019-05-13T02:48:42.261Z,3.46
2019-05-13T02:49:43.021Z,3.39
2019-05-13T02:50:43.907Z,3.39
2019-05-13T02:51:42.845Z,3.46
2019-05-13T02:52:43.936Z,3.44
2019-05-13T02:53:43.473Z,3.35
2019-05-13T02:54:42.722Z,3.31
2019-05-13T02:55:43.525Z,3.25
2019-05-13T02:56:42.219Z,3.25
2019-05-13T02:57:43.233Z,3.17
2019-05-13T02:58:42.877Z,3.05
2019-05-13T02:59:42.267Z,3.07
2019-05-13T03:00:43.785Z,2.95
2019-05-13T03:01:43.000Z,2.92
2019-05-13T03:02:43.253Z,2.95
2019-05-13T03:03:39.510Z,2.89
2019-05-13T03:04:43.089Z,2.84
2019-05-13T03:05:42.588Z,2.89
2019-05-13T03:06:39.216Z,2.81
2019-05-13T03:07:42.241Z,2.81
2019-05-13T03:08:46.256Z,2.80
2019-05-13T03:09:42.020Z,2.77
2019-05-13T03:10:38.811Z,2.84
2019-05-13T03:11:41.519Z,2.65
2019-05-13T03:12:38.594Z,2.90
2019-05-13T03:13:38.498Z,2.87
2019-05-13T03:14:38.392Z,2.97
2019-05-13T03:15:38.293Z,2.89
2019-05-13T03:16:38.214Z,2.92
2019-05-13T03:17:38.196Z,2.89
2019-05-13T03:18:37.990Z,2.81
2019-05-13T03:19:37.885Z,2.76
2019-05-13T03:20:37.783Z,2.77
2019-05-13T03:21:37.698Z,2.86
2019-05-13T03:22:37.598Z,2.74
2019-05-13T03:23:37.480Z,2.69
2019-05-13T03:24:37.383Z,2.65
2019-05-13T03:25:37.281Z,2.63
2019-05-13T03:26:37.202Z,2.63
2019-05-13T03:27:37.078Z,2.59
2019-05-13T03:28:36.975Z,2.59
2019-05-13T03:29:36.877Z,2.59
2019-05-13T03:30:36.773Z,2.59
2019-05-13T03:31:36.685Z,2.63
2019-05-13T03:32:44.479Z,2.58
2019-05-13T03:33:37.966Z,2.51
2019-05-13T03:34:36.871Z,2.50
2019-05-13T03:35:37.259Z,2.50
2019-05-13T03:36:36.751Z,2.50
2019-05-13T03:37:36.063Z,2.48
2019-05-13T03:38:58.192Z,2.55
2019-05-13T03:39:35.862Z,2.50
2019-05-13T03:40:35.762Z,2.55
2019-05-13T03:41:35.673Z,2.45
2019-05-13T03:42:35.564Z,2.38
2019-05-13T03:43:35.458Z,2.40
2019-05-13T03:44:35.352Z,2.37
2019-05-13T03:45:35.254Z,2.40
2019-05-13T03:46:35.170Z,2.43
2019-05-13T03:47:35.052Z,2.32
2019-05-13T03:48:35.000Z,2.43
2019-05-13T03:49:34.850Z,2.41
2019-05-13T03:50:35.034Z,2.55
2019-05-13T03:51:34.662Z,2.53
2019-05-13T03:52:34.545Z,2.50
2019-05-13T03:53:34.455Z,2.61
2019-05-13T03:54:34.341Z,2.63
2019-05-13T03:55:34.258Z,2.62
2019-05-13T03:56:34.155Z,2.68
2019-05-13T03:57:34.093Z,2.71
2019-05-13T03:58:33.936Z,2.65
2019-05-13T03:59:33.894Z,2.68
2019-05-13T04:00:33.733Z,2.79
2019-05-13T04:01:33.644Z,2.66
2019-05-13T04:02:33.535Z,2.69
2019-05-13T04:03:33.456Z,2.65
2019-05-13T04:04:33.324Z,2.68
2019-05-13T04:05:33.633Z,2.71
2019-05-13T04:06:33.124Z,2.76
2019-05-13T04:07:33.040Z,2.68
2019-05-13T04:08:32.984Z,2.74
2019-05-13T04:09:36.279Z,2.77
2019-05-13T04:10:33.588Z,2.76
2019-05-13T04:11:33.135Z,2.95
2019-05-13T04:12:33.544Z,2.95
2019-05-13T04:13:33.567Z,3.02
2019-05-13T04:14:33.364Z,3.07
2019-05-13T04:15:32.210Z,3.12
2019-05-13T04:16:32.406Z,3.05
2019-05-13T04:17:32.183Z,3.16
2019-05-13T04:18:32.094Z,3.25
2019-05-13T04:19:33.627Z,3.25
2019-05-13T04:20:33.318Z,3.41
2019-05-13T04:21:33.852Z,3.41
2019-05-13T04:22:33.243Z,3.37
2019-05-13T04:23:32.291Z,3.53
2019-05-13T04:24:33.342Z,3.59
2019-05-13T04:25:32.217Z,3.59
2019-05-13T04:26:32.339Z,3.57
2019-05-13T04:27:32.695Z,3.70
2019-05-13T04:28:33.142Z,3.75
2019-05-13T04:29:32.859Z,3.86
2019-05-13T04:30:33.042Z,3.90
2019-05-13T04:31:33.278Z,3.88
2019-05-13T04:32:33.481Z,3.88
2019-05-13T04:33:33.115Z,3.98
2019-05-13T04:34:33.652Z,4.07
2019-05-13T04:35:32.414Z,4.18
2019-05-13T04:36:32.023Z,4.20
2019-05-13T04:37:32.831Z,4.25
2019-05-13T04:38:32.189Z,4.34
2019-05-13T04:39:44.483Z,4.47
2019-05-13T04:40:32.950Z,4.51
2019-05-13T04:41:32.964Z,4.68
2019-05-13T04:42:29.497Z,4.71
2019-05-13T04:43:31.637Z,4.83
2019-05-13T04:44:32.040Z,4.93
2019-05-13T04:45:32.598Z,4.97
2019-05-13T04:46:32.512Z,5.02
2019-05-13T04:47:28.999Z,5.02
2019-05-13T04:48:28.891Z,5.01
2019-05-13T04:49:32.287Z,5.01
2019-05-13T04:50:28.684Z,5.09
2019-05-13T04:51:28.586Z,5.11
2019-05-13T04:52:28.497Z,5.01
2019-05-13T04:53:28.384Z,5.11
2019-05-13T04:54:28.284Z,5.06
2019-05-13T04:55:28.191Z,5.24
2019-05-13T04:56:28.086Z,5.22
2019-05-13T04:57:27.999Z,5.09
2019-05-13T04:58:28.206Z,5.14
2019-05-13T04:59:27.783Z,5.14
2019-05-13T05:00:27.688Z,4.97
2019-05-13T05:01:27.596Z,5.05
2019-05-13T05:02:37.430Z,4.99
2019-05-13T05:03:33.294Z,5.12
2019-05-13T05:04:30.412Z,5.09
2019-05-13T05:05:27.190Z,5.01
2019-05-13T05:06:27.100Z,5.14
2019-05-13T05:07:27.005Z,5.15
2019-05-13T05:08:26.892Z,5.12
2019-05-13T05:09:26.796Z,5.24
2019-05-13T05:10:34.783Z,5.09
2019-05-13T05:11:26.593Z,5.23
2019-05-13T05:12:26.510Z,5.22
2019-05-13T05:13:26.399Z,5.26
2019-05-13T05:14:26.298Z,5.37
2019-05-13T05:15:26.204Z,5.37
2019-05-13T05:16:26.100Z,5.49
2019-05-13T05:17:26.109Z,5.56
2019-05-13T05:18:25.913Z,5.58
2019-05-13T05:19:25.803Z,5.60
2019-05-13T05:20:25.702Z,5.59
2019-05-13T05:21:25.602Z,5.59
2019-05-13T05:22:25.503Z,5.62
2019-05-13T05:23:25.419Z,5.75
2019-05-13T05:24:25.408Z,5.69
2019-05-13T05:25:25.207Z,5.69
2019-05-13T05:26:25.108Z,5.70
2019-05-13T05:27:25.011Z,5.74
2019-05-13T05:28:24.928Z,5.84
2019-05-13T05:29:24.812Z,6.03
2019-05-13T05:30:24.717Z,6.03
2019-05-13T05:31:24.720Z,6.17
2019-05-13T05:32:24.516Z,6.13
2019-05-13T05:33:24.442Z,6.16
2019-05-13T05:34:24.327Z,6.17
2019-05-13T05:35:24.223Z,6.24
2019-05-13T05:36:24.124Z,6.27
2019-05-13T05:37:24.026Z,6.30
2019-05-13T05:38:26.133Z,6.35
2019-05-13T05:39:23.828Z,6.54
2019-05-13T05:40:31.433Z,6.57
2019-05-13T05:41:23.633Z,6.68
2019-05-13T05:42:23.535Z,6.69
2019-05-13T05:43:23.458Z,6.68
2019-05-13T05:44:23.338Z,6.61
2019-05-13T05:45:23.353Z,6.64
2019-05-13T05:46:23.144Z,6.72
2019-05-13T05:47:23.047Z,6.69
2019-05-13T05:48:22.957Z,6.73
2019-05-13T05:49:22.849Z,6.81
2019-05-13T05:50:23.079Z,6.89
2019-05-13T05:51:22.653Z,6.75
2019-05-13T05:52:22.656Z,6.68
2019-05-13T05:53:22.474Z,6.69
2019-05-13T05:54:22.360Z,6.81
2019-05-13T05:55:22.264Z,6.89
2019-05-13T05:56:22.164Z,6.96
2019-05-13T05:57:22.550Z,7.07
2019-05-13T05:58:22.842Z,7.14
2019-05-13T05:59:22.014Z,7.04
2019-05-13T06:00:22.090Z,7.12
2019-05-13T06:01:23.330Z,7.07
2019-05-13T06:02:23.049Z,7.19
2019-05-13T06:03:21.918Z,7.33
2019-05-13T06:04:22.084Z,7.26
2019-05-13T06:05:21.449Z,7.34
2019-05-13T06:06:22.733Z,7.50
2019-05-13T06:07:21.956Z,7.62
2019-05-13T06:08:22.164Z,7.67
2019-05-13T06:09:21.420Z,7.77
2019-05-13T06:10:22.537Z,7.82
2019-05-13T06:11:22.273Z,7.77
2019-05-13T06:12:21.378Z,7.95
2019-05-13T06:13:21.418Z,7.84
2019-05-13T06:14:21.963Z,7.73
2019-05-13T06:15:22.417Z,7.48
2019-05-13T06:16:21.811Z,7.34
2019-05-13T06:17:21.908Z,7.42
2019-05-13T06:18:22.170Z,7.34
2019-05-13T06:19:22.332Z,7.37
2019-05-13T06:20:21.183Z,7.47
2019-05-13T06:21:21.518Z,7.50
2019-05-13T06:22:21.699Z,7.42
2019-05-13T06:23:21.985Z,7.55
2019-05-13T06:24:22.266Z,7.60
2019-05-13T06:25:22.994Z,7.52
2019-05-13T06:26:19.266Z,7.51
2019-05-13T06:27:21.250Z,7.62
2019-05-13T06:28:21.577Z,7.63
2019-05-13T06:29:18.993Z,7.82
2019-05-13T06:30:21.534Z,7.58
2019-05-13T06:31:18.781Z,7.67
2019-05-13T06:32:23.486Z,7.88
2019-05-13T06:33:21.035Z,7.94
2019-05-13T06:34:18.504Z,8.12
2019-05-13T06:35:18.395Z,8.02
2019-05-13T06:36:18.299Z,8.12
2019-05-13T06:37:18.203Z,8.45
2019-05-13T06:38:18.107Z,8.79
2019-05-13T06:39:18.023Z,8.98
2019-05-13T06:40:17.917Z,9.20
2019-05-13T06:41:17.819Z,9.19
2019-05-13T06:42:17.728Z,9.48
2019-05-13T06:43:17.624Z,9.56
2019-05-13T06:44:17.549Z,9.62
2019-05-13T06:45:17.434Z,9.99
2019-05-13T06:46:17.339Z,10.11
2019-05-13T06:47:17.243Z,10.11
2019-05-13T06:48:17.148Z,10.13
2019-05-13T06:49:17.072Z,10.22
2019-05-13T06:50:16.962Z,10.20
2019-05-13T06:51:16.864Z,10.25
2019-05-13T06:52:16.771Z,10.13
2019-05-13T06:53:16.678Z,10.31
2019-05-13T06:54:16.597Z,10.55
2019-05-13T06:55:16.492Z,10.39
2019-05-13T06:56:16.396Z,10.26
2019-05-13T06:57:16.304Z,10.44
2019-05-13T06:58:16.211Z,10.36
2019-05-13T06:59:16.116Z,10.57
2019-05-13T07:00:16.037Z,10.66
2019-05-13T07:01:15.929Z,10.69
2019-05-13T07:02:15.840Z,10.62
2019-05-13T07:03:15.742Z,10.36
2019-05-13T07:04:15.653Z,10.60
2019-05-13T07:05:15.577Z,10.62
2019-05-13T07:06:15.468Z,10.90
2019-05-13T07:07:17.291Z,11.19
2019-05-13T07:08:15.283Z,11.44
2019-05-13T07:09:15.190Z,11.70
2019-05-13T07:10:15.109Z,11.78
2019-05-13T07:11:21.058Z,11.87
2019-05-13T07:12:14.913Z,11.45
2019-05-13T07:13:14.821Z,11.63
2019-05-13T07:14:14.727Z,11.54
2019-05-13T07:15:14.765Z,11.74
2019-05-13T07:16:14.543Z,11.59
2019-05-13T07:17:14.495Z,11.67
2019-05-13T07:18:16.203Z,12.03
2019-05-13T07:19:14.271Z,12.13
2019-05-13T07:20:14.194Z,11.74
2019-05-13T07:21:14.088Z,11.81
2019-05-13T07:22:14.104Z,11.64
2019-05-13T07:23:13.907Z,11.69
2019-05-13T07:24:13.818Z,11.77
2019-05-13T07:25:13.737Z,11.63
2019-05-13T07:26:13.633Z,11.97
2019-05-13T07:27:13.544Z,12.21
2019-05-13T07:28:13.452Z,11.90
2019-05-13T07:29:13.890Z,11.66
2019-05-13T07:30:13.285Z,11.54
2019-05-13T07:31:13.179Z,10.98
2019-05-13T07:32:13.087Z,10.78
2019-05-13T07:33:13.042Z,10.66
2019-05-13T07:34:12.910Z,9.99
2019-05-13T07:35:14.534Z,9.80
2019-05-13T07:36:12.962Z,9.73
2019-05-13T07:37:12.634Z,9.63
2019-05-13T07:38:12.543Z,9.48
2019-05-13T07:39:12.454Z,9.45
2019-05-13T07:40:12.378Z,9.65
2019-05-13T07:41:12.266Z,9.81
2019-05-13T07:42:12.517Z,10.01
2019-05-13T07:43:12.530Z,10.31
2019-05-13T07:44:12.062Z,10.83
2019-05-13T07:45:12.319Z,11.31
2019-05-13T07:46:12.563Z,10.95
2019-05-13T07:47:12.898Z,11.03
2019-05-13T07:48:20.519Z,11.41
2019-05-13T07:49:12.071Z,11.70
2019-05-13T07:50:12.775Z,11.96
2019-05-13T07:51:11.891Z,12.58
2019-05-13T07:52:11.873Z,12.55
2019-05-13T07:53:16.392Z,12.04
2019-05-13T07:54:11.463Z,11.98
2019-05-13T07:55:11.995Z,12.23
2019-05-13T07:56:12.470Z,12.15
2019-05-13T07:57:12.214Z,12.48
2019-05-13T07:58:11.483Z,12.79
2019-05-13T07:59:12.299Z,12.38
2019-05-13T08:00:12.431Z,12.49
2019-05-13T08:01:12.309Z,12.54
2019-05-13T08:02:12.361Z,12.37
2019-05-13T08:03:12.393Z,12.67
2019-05-13T08:04:22.092Z,12.89
2019-05-13T08:05:12.026Z,13.04
2019-05-13T08:06:11.111Z,13.19
2019-05-13T08:07:11.965Z,13.03
2019-05-13T08:08:11.727Z,13.04
2019-05-13T08:09:12.590Z,12.95
2019-05-13T08:10:11.550Z,12.70
2019-05-13T08:11:09.533Z,12.40
2019-05-13T08:12:11.920Z,12.54
2019-05-13T08:13:11.662Z,12.85
2019-05-13T08:14:09.243Z,13.27
2019-05-13T08:15:11.751Z,13.79
2019-05-13T08:16:09.075Z,14.05
2019-05-13T08:17:11.490Z,14.31
2019-05-13T08:18:08.880Z,14.34
2019-05-13T08:19:08.785Z,14.13
2019-05-13T08:20:08.703Z,14.08
2019-05-13T08:21:08.619Z,13.76
2019-05-13T08:22:08.524Z,13.91
2019-05-13T08:23:08.428Z,13.51
2019-05-13T08:24:08.336Z,13.69
2019-05-13T08:25:08.245Z,14.35
2019-05-13T08:26:08.176Z,14.09
2019-05-13T08:27:08.064Z,14.05
2019-05-13T08:28:07.975Z,13.93
2019-05-13T08:29:07.884Z,14.01
2019-05-13T08:30:07.793Z,13.91
2019-05-13T08:31:07.822Z,13.72
2019-05-13T08:32:07.742Z,14.05
2019-05-13T08:33:07.520Z,14.23
2019-05-13T08:34:07.433Z,14.46
2019-05-13T08:35:08.984Z,14.44
2019-05-13T08:36:07.266Z,14.53
2019-05-13T08:37:07.162Z,14.71
2019-05-13T08:38:07.177Z,14.49
2019-05-13T08:39:06.982Z,14.71
2019-05-13T08:40:06.892Z,14.83
2019-05-13T08:41:09.741Z,14.93
2019-05-13T08:42:15.128Z,15.11
2019-05-13T08:43:07.036Z,14.94
2019-05-13T08:44:06.536Z,14.94
2019-05-13T08:45:06.543Z,14.59
2019-05-13T08:46:06.371Z,14.80
2019-05-13T08:47:06.268Z,14.75
2019-05-13T08:48:06.179Z,14.98
2019-05-13T08:49:06.089Z,15.15
2019-05-13T08:50:06.003Z,15.49
2019-05-13T08:51:05.927Z,15.64
2019-05-13T08:52:05.925Z,15.60
2019-05-13T08:53:05.733Z,15.88
2019-05-13T08:54:05.645Z,16.13
2019-05-13T08:55:05.561Z,16.34
2019-05-13T08:56:05.479Z,15.99
2019-05-13T08:57:05.400Z,16.16
2019-05-13T08:58:05.289Z,16.17
2019-05-13T08:59:05.306Z,15.85
2019-05-13T09:00:05.759Z,15.68
2019-05-13T09:01:05.028Z,15.91
2019-05-13T09:02:04.951Z,15.89
2019-05-13T09:03:06.302Z,15.96
2019-05-13T09:04:04.765Z,15.88
2019-05-13T09:05:04.672Z,15.96
2019-05-13T09:06:04.593Z,15.98
2019-05-13T09:07:04.507Z,16.04
2019-05-13T09:08:04.406Z,16.04
2019-05-13T09:09:04.322Z,15.86
2019-05-13T09:10:04.230Z,15.43
2019-05-13T09:11:04.143Z,15.43
2019-05-13T09:12:04.070Z,15.70
2019-05-13T09:13:04.071Z,15.78
2019-05-13T09:14:03.881Z,16.06
2019-05-13T09:15:03.814Z,16.11
2019-05-13T09:16:03.710Z,15.91
2019-05-13T09:17:03.632Z,16.34
2019-05-13T09:18:03.549Z,15.93
2019-05-13T09:19:04.065Z,15.60
2019-05-13T09:20:03.350Z,15.01
2019-05-13T09:21:03.266Z,15.09
2019-05-13T09:22:03.542Z,15.16
2019-05-13T09:23:03.087Z,14.79
2019-05-13T09:24:03.000Z,14.79
2019-05-13T09:25:02.912Z,14.78
2019-05-13T09:26:02.894Z,15.00
2019-05-13T09:27:02.754Z,14.69
2019-05-13T09:28:02.781Z,14.95
2019-05-13T09:29:02.562Z,15.01
2019-05-13T09:30:02.952Z,14.75
2019-05-13T09:31:02.417Z,14.90
2019-05-13T09:32:03.679Z,14.79
2019-05-13T09:33:02.207Z,15.03
2019-05-13T09:34:02.118Z,15.35
2019-05-13T09:35:02.920Z,15.51
2019-05-13T09:36:02.362Z,15.48
2019-05-13T09:37:02.854Z,14.48
2019-05-13T09:38:03.339Z,14.78
2019-05-13T09:39:02.200Z,15.19
2019-05-13T09:40:02.383Z,15.60
2019-05-13T09:41:02.065Z,15.86
2019-05-13T09:42:02.620Z,15.93
2019-05-13T09:43:02.569Z,16.14
2019-05-13T09:44:01.987Z,16.34
2019-05-13T09:45:02.257Z,16.47
2019-05-13T09:46:01.771Z,16.34
2019-05-13T09:47:02.585Z,16.11
2019-05-13T09:48:01.574Z,15.89
2019-05-13T09:49:12.802Z,16.17
2019-05-13T09:50:00.703Z,16.13
2019-05-13T09:51:02.475Z,16.59
2019-05-13T09:52:01.661Z,16.54
2019-05-13T09:53:02.700Z,16.84
2019-05-13T09:54:01.348Z,17.05
2019-05-13T09:55:02.868Z,16.92
2019-05-13T09:56:02.367Z,16.23
2019-05-13T09:57:01.727Z,16.14
2019-05-13T09:58:02.259Z,15.81
2019-05-13T09:59:01.787Z,15.88
2019-05-13T10:00:01.756Z,16.06
2019-05-13T10:00:59.736Z,15.95
2019-05-13T10:02:02.537Z,16.14
2019-05-13T10:03:02.020Z,15.59
2019-05-13T10:04:00.397Z,15.34
2019-05-13T10:05:01.952Z,16.11
2019-05-13T10:06:01.946Z,16.45
2019-05-13T10:07:01.602Z,16.30
2019-05-13T10:08:02.049Z,16.48
2019-05-13T10:09:01.738Z,16.70
2019-05-13T10:10:01.237Z,17.07
2019-05-13T10:11:01.353Z,17.12
2019-05-13T10:11:58.775Z,17.02
2019-05-13T10:13:09.114Z,17.00
2019-05-13T10:13:58.594Z,16.82
2019-05-13T10:14:58.511Z,16.50
2019-05-13T10:15:58.420Z,16.34
2019-05-13T10:16:58.335Z,16.18
2019-05-13T10:17:58.258Z,15.64
2019-05-13T10:18:58.159Z,15.55
2019-05-13T10:19:58.071Z,15.53
2019-05-13T10:20:59.048Z,15.80
2019-05-13T10:21:57.899Z,15.70
2019-05-13T10:22:57.819Z,15.91
2019-05-13T10:23:58.726Z,16.07
2019-05-13T10:24:57.631Z,16.32
2019-05-13T10:25:57.546Z,16.32
2019-05-13T10:26:57.459Z,16.26
2019-05-13T10:27:57.384Z,16.48
2019-05-13T10:28:57.280Z,16.95
2019-05-13T10:29:57.306Z,15.86
2019-05-13T10:30:57.110Z,15.52
2019-05-13T10:31:57.021Z,15.35
2019-05-13T10:32:59.419Z,15.91
2019-05-13T10:33:56.843Z,16.55
2019-05-13T10:34:56.770Z,16.26
2019-05-13T10:35:56.671Z,16.91
2019-05-13T10:36:56.686Z,17.02
2019-05-13T10:37:56.507Z,16.06
2019-05-13T10:38:56.406Z,15.28
2019-05-13T10:39:56.317Z,14.48
2019-05-13T10:40:56.231Z,14.95
2019-05-13T10:41:56.142Z,14.82
2019-05-13T10:42:56.066Z,15.34
2019-05-13T10:43:56.079Z,15.48
2019-05-13T10:44:55.880Z,15.40
2019-05-13T10:45:55.792Z,15.74
2019-05-13T10:46:55.702Z,15.86
2019-05-13T10:47:55.631Z,16.03
2019-05-13T10:48:55.530Z,16.01
2019-05-13T10:49:55.448Z,16.06
2019-05-13T10:50:55.460Z,15.96
2019-05-13T10:51:55.262Z,16.22
2019-05-13T10:52:55.192Z,16.60
2019-05-13T10:53:59.440Z,16.80
2019-05-13T10:54:54.996Z,16.78
2019-05-13T10:55:54.912Z,16.23
2019-05-13T10:56:59.455Z,16.10
2019-05-13T10:57:54.752Z,16.06
2019-05-13T10:58:54.970Z,15.35
2019-05-13T10:59:59.527Z,15.19
2019-05-13T11:00:54.471Z,15.85
2019-05-13T11:01:54.384Z,15.92
2019-05-13T11:02:54.308Z,15.66
2019-05-13T11:03:54.211Z,15.96
2019-05-13T11:04:54.119Z,16.34
2019-05-13T11:05:54.032Z,16.50
2019-05-13T11:06:53.945Z,16.51
2019-05-13T11:07:53.870Z,16.55
2019-05-13T11:08:54.139Z,16.84
2019-05-13T11:09:53.680Z,17.10
2019-05-13T11:10:53.596Z,16.99
2019-05-13T11:11:53.607Z,16.73
2019-05-13T11:12:53.431Z,16.25
2019-05-13T11:13:59.207Z,16.47
2019-05-13T11:14:55.135Z,15.66
2019-05-13T11:15:57.908Z,15.12
2019-05-13T11:16:53.070Z,15.20
2019-05-13T11:17:53.024Z,15.35
2019-05-13T11:18:53.005Z,15.85
2019-05-13T11:19:52.805Z,15.93
2019-05-13T11:20:52.713Z,16.10
2019-05-13T11:21:52.625Z,16.23
2019-05-13T11:22:52.566Z,15.85
2019-05-13T11:23:52.453Z,15.68
2019-05-13T11:24:52.365Z,16.07
2019-05-13T11:25:52.538Z,15.31
2019-05-13T11:27:53.023Z,15.49
2019-05-13T11:28:52.376Z,15.68
2019-05-13T11:29:52.487Z,16.03
2019-05-13T11:30:52.219Z,15.76
2019-05-13T11:31:52.802Z,16.14
2019-05-13T11:32:51.842Z,16.47
2019-05-13T11:33:52.195Z,15.95
2019-05-13T11:34:53.013Z,15.85
2019-05-13T11:35:52.293Z,15.85
2019-05-13T11:36:53.225Z,16.30
2019-05-13T11:37:52.193Z,15.78
2019-05-13T11:38:53.174Z,16.14
2019-05-13T11:39:51.632Z,15.93
2019-05-13T11:40:52.339Z,16.07
2019-05-13T11:41:50.865Z,15.81
2019-05-13T11:42:52.665Z,15.92
2019-05-13T11:44:11.485Z,16.22
2019-05-13T11:44:52.724Z,16.10
2019-05-13T11:45:50.866Z,16.47
2019-05-13T11:46:53.077Z,16.69
2019-05-13T11:47:52.192Z,16.57
2019-05-13T11:48:51.864Z,17.05
2019-05-13T11:49:52.132Z,16.25
2019-05-13T11:50:53.245Z,15.81
2019-05-13T11:51:51.908Z,15.22
2019-05-13T11:52:52.462Z,14.46
2019-05-13T11:53:50.561Z,13.99
2019-05-13T11:54:53.161Z,13.46
2019-05-13T11:55:52.172Z,13.17
2019-05-13T11:56:57.408Z,13.88
2019-05-13T11:57:49.452Z,14.35
2019-05-13T11:58:53.041Z,14.27
2019-05-13T11:59:52.387Z,14.38
2019-05-13T12:00:52.764Z,14.11
2019-05-13T12:01:49.098Z,13.87
2019-05-13T12:02:52.046Z,14.16
2019-05-13T12:03:48.931Z,14.82
2019-05-13T12:04:48.830Z,15.35
2019-05-13T12:05:48.738Z,15.07
2019-05-13T12:06:53.312Z,14.75
2019-05-13T12:07:48.559Z,15.64
2019-05-13T12:08:51.988Z,15.95
2019-05-13T12:09:48.381Z,16.03
2019-05-13T12:10:48.292Z,16.55
2019-05-13T12:11:48.201Z,16.91
2019-05-13T12:12:48.111Z,16.91
2019-05-13T12:13:48.038Z,16.96
2019-05-13T12:15:16.254Z,16.07
2019-05-13T12:15:49.893Z,15.81
2019-05-13T12:16:47.761Z,15.30
2019-05-13T12:17:47.677Z,15.41
2019-05-13T12:18:47.608Z,14.78
2019-05-13T12:19:47.490Z,14.74
2019-05-13T12:20:47.402Z,14.97
2019-05-13T12:21:47.324Z,15.20
2019-05-13T12:22:47.223Z,15.62
2019-05-13T12:23:47.148Z,15.59
2019-05-13T12:24:47.044Z,15.74
2019-05-13T12:25:46.959Z,15.92
2019-05-13T12:26:46.867Z,16.13
2019-05-13T12:27:46.778Z,15.78
2019-05-13T12:28:46.691Z,15.85
2019-05-13T12:29:46.615Z,16.16
2019-05-13T12:30:46.513Z,16.23
2019-05-13T12:31:46.426Z,16.34
2019-05-13T12:32:46.346Z,15.89
2019-05-13T12:33:46.261Z,14.85
2019-05-13T12:34:46.222Z,15.00
2019-05-13T12:35:46.080Z,15.16
2019-05-13T12:36:45.980Z,15.40
2019-05-13T12:37:45.895Z,15.49
2019-05-13T12:38:45.806Z,15.71
2019-05-13T12:39:45.728Z,15.16
2019-05-13T12:40:45.633Z,14.85
2019-05-13T12:41:45.646Z,14.44
2019-05-13T12:42:47.318Z,14.80
2019-05-13T12:43:45.360Z,15.22
2019-05-13T12:45:00.311Z,15.35
2019-05-13T12:45:45.183Z,15.52
2019-05-13T12:46:50.266Z,15.44
2019-05-13T12:47:45.003Z,15.40
2019-05-13T12:48:44.919Z,15.38
2019-05-13T12:49:44.842Z,15.34
2019-05-13T12:50:44.737Z,15.34
2019-05-13T12:51:44.649Z,15.13
2019-05-13T12:52:44.561Z,15.11
2019-05-13T12:53:44.495Z,15.01
2019-05-13T12:54:44.394Z,14.74
2019-05-13T12:55:51.056Z,14.46
2019-05-13T12:56:44.210Z,14.45
2019-05-13T12:57:44.118Z,14.57
2019-05-13T12:58:44.045Z,14.60
2019-05-13T12:59:43.956Z,14.67
2019-05-13T13:00:43.852Z,14.44
2019-05-13T13:01:43.762Z,14.19
2019-05-13T13:02:50.282Z,13.93
2019-05-13T13:03:43.596Z,13.62
2019-05-13T13:05:07.976Z,13.09
2019-05-13T13:05:43.498Z,12.98
2019-05-13T13:06:45.291Z,12.79